Time;durP1;ratioP1;P1;durP2;ratioP2;P2;SDS_P1;SDS_P2;PMS_P1;PMS_P2;Temp;Humidity;BMP_temperature;BMP_pressure;BME280_temperature;BME280_humidity;BME280_pressure;Samples;Min_cycle;Max_cycle;Signal;HPM_P1;HPM_P2
2023/01/07 00:00:57;;;;;;;0.10;0.10;;;;;;;;;;4959967;29;20270;-88
2023/01/07 00:03:28;;;;;;;0.00;0.00;;;;;;;;;;4960032;29;20218;-88
2023/01/07 00:06:06;;;;;;;0.00;0.00;;;;;;;;;;4967213;29;20727;-87
2023/01/07 00:08:37;;;;;;;0.00;0.00;;;;;;;;;;4967427;28;20198;-89
2023/01/07 00:11:07;;;;;;;0.00;0.00;;;;;;;;;;4968985;28;20242;-88
2023/01/07 00:13:52;;;;;;;0.10;0.10;;;;;;;;;;4967375;29;20223;-87
2023/01/07 00:16:25;;;;;;;0.00;0.00;;;;;;;;;;4966988;29;20207;-88
2023/01/07 00:19:00;;;;;;;0.00;0.00;;;;;;;;;;4967734;29;20206;-87
2023/01/07 00:21:31;;;;;;;0.00;0.00;;;;;;;;;;4966582;29;20257;-88
2023/01/07 00:24:10;;;;;;;0.10;0.10;;;;;;;;;;4965154;29;20203;-88
2023/01/07 00:26:40;;;;;;;2.17;0.20;;;;;;;;;;4967745;29;20206;-87
2023/01/07 00:29:10;;;;;;;0.00;0.00;;;;;;;;;;4968316;29;20206;-87
2023/01/07 00:31:39;;;;;;;0.00;0.00;;;;;;;;;;4968226;29;20199;-87
2023/01/07 00:34:11;;;;;;;0.00;0.00;;;;;;;;;;4968565;29;20198;-88
2023/01/07 00:36:46;;;;;;;1.83;0.60;;;;;;;;;;4968235;29;20233;-86
2023/01/07 00:39:19;;;;;;;1.53;0.90;;;;;;;;;;4965127;29;20210;-87
2023/01/07 00:44:35;;;;;;;0.57;0.57;;;;;;;;;;4926894;29;20239;-88
2023/01/07 00:47:06;;;;;;;0.63;0.63;;;;;;;;;;4919537;29;20210;-86
2023/01/07 00:49:36;;;;;;;0.50;0.50;;;;;;;;;;4918068;29;20431;-88
2023/01/07 00:52:07;;;;;;;3.10;1.30;;;;;;;;;;4918141;29;20196;-87
2023/01/07 00:54:37;;;;;;;1.37;0.63;;;;;;;;;;4918548;29;20195;-89
2023/01/07 00:57:09;;;;;;;2.40;2.23;;;;;;;;;;4916896;29;20247;-89
2023/01/07 00:59:53;;;;;;;0.63;0.63;;;;;;;;;;4917946;29;20203;-88
2023/01/07 01:02:29;;;;;;;0.73;0.73;;;;;;;;;;4927342;29;20203;-87
2023/01/07 01:05:06;;;;;;;1.67;1.03;;;;;;;;;;4925074;29;20203;-89
2023/01/07 01:07:38;;;;;;;4.40;1.00;;;;;;;;;;4919246;29;20617;-88
2023/01/07 01:10:14;;;;;;;0.40;0.40;;;;;;;;;;4918021;29;20284;-88
2023/01/07 01:12:48;;;;;;;6.13;0.77;;;;;;;;;;4917898;29;20200;-89
2023/01/07 01:15:21;;;;;;;1.00;0.90;;;;;;;;;;4916836;29;20672;-89
2023/01/07 01:17:51;;;;;;;0.63;0.63;;;;;;;;;;4917905;29;20639;-89
2023/01/07 01:20:21;;;;;;;1.27;1.17;;;;;;;;;;4920210;29;20200;-89
2023/01/07 01:22:52;;;;;;;0.20;0.20;;;;;;;;;;4917732;29;20604;-89
2023/01/07 01:28:25;;;;;;;0.47;0.47;;;;;;;;;;4896961;29;20207;-87
2023/01/07 01:31:23;;;;;;;0.27;0.27;;;;;;;;;;4922590;29;20291;-89
2023/01/07 01:36:37;;;;;;;1.80;0.60;;;;;;;;;;4914542;29;20212;-86
2023/01/07 01:39:09;;;;;;;2.80;0.97;;;;;;;;;;4917661;29;20228;-88
2023/01/07 01:41:43;;;;;;;0.20;0.20;;;;;;;;;;4935065;29;20668;-88
2023/01/07 01:44:33;;;;;;;0.40;0.40;;;;;;;;;;4930376;29;20254;-90
2023/01/07 01:47:05;;;;;;;0.53;0.53;;;;;;;;;;4939448;29;20211;-86
2023/01/07 01:49:51;;;;;;;1.00;0.60;;;;;;;;;;4949189;29;20203;-87
2023/01/07 01:52:41;;;;;;;0.07;0.07;;;;;;;;;;4947623;29;20477;-90
2023/01/07 01:55:19;;;;;;;0.20;0.20;;;;;;;;;;4948919;29;20199;-90
2023/01/07 01:57:53;;;;;;;0.00;0.00;;;;;;;;;;4949486;29;20243;-90
2023/01/07 02:00:45;;;;;;;0.57;0.57;;;;;;;;;;4947943;29;20203;-90
2023/01/07 02:03:21;;;;;;;0.50;0.50;;;;;;;;;;4941931;28;20222;-90
2023/01/07 02:05:49;;;;;;;0.30;0.30;;;;;;;;;;4944358;29;20202;-88
2023/01/07 02:08:20;;;;;;;1.23;1.23;;;;;;;;;;4953962;29;20252;-89
2023/01/07 02:11:09;;;;;;;0.30;0.30;;;;;;;;;;4952559;29;20214;-89
2023/01/07 02:13:59;;;;;;;0.50;0.50;;;;;;;;;;4932701;29;20241;-86
2023/01/07 02:16:31;;;;;;;0.47;0.47;;;;;;;;;;4949519;29;20256;-88
2023/01/07 02:21:55;;;;;;;0.47;0.47;;;;;;;;;;4940056;29;21160;-88
2023/01/07 02:24:36;;;;;;;0.17;0.17;;;;;;;;;;4939728;29;20221;-87
2023/01/07 02:27:17;;;;;;;1.70;0.30;;;;;;;;;;4927736;29;20791;-89
2023/01/07 02:30:05;;;;;;;0.97;0.93;;;;;;;;;;4939719;29;20630;-90
2023/01/07 02:32:47;;;;;;;0.77;0.77;;;;;;;;;;4943839;29;20271;-88
2023/01/07 02:35:24;;;;;;;0.23;0.20;;;;;;;;;;4943058;29;20214;-90
2023/01/07 02:38:04;;;;;;;2.00;0.40;;;;;;;;;;4935603;29;20313;-90
2023/01/07 02:43:27;;;;;;;0.97;0.67;;;;;;;;;;5054598;23;20249;-90
2023/01/07 02:46:06;;;;;;;0.20;0.20;;;;;;;;;;4974008;28;20205;-90
2023/01/07 02:48:40;;;;;;;0.30;0.27;;;;;;;;;;4974279;28;20202;-90
2023/01/07 02:51:11;;;;;;;0.83;0.67;;;;;;;;;;4974539;28;20220;-89
2023/01/07 02:53:46;;;;;;;0.63;0.63;;;;;;;;;;4973496;28;20695;-89
2023/01/07 02:59:47;;;;;;;0.10;0.10;;;;;;;;;;4966767;28;20401;-90
2023/01/07 03:09:02;;;;;;;;;;;;;;;;;;;;;
2023/01/07 03:23:30;;;;;;;0.30;0.20;;;;;;;;;;4909914;28;20214;-88
2023/01/07 03:26:04;;;;;;;0.43;0.43;;;;;;;;;;4960547;29;20207;-88
2023/01/07 03:28:39;;;;;;;0.30;0.30;;;;;;;;;;4966128;29;20199;-87
2023/01/07 03:31:15;;;;;;;0.50;0.50;;;;;;;;;;4962293;29;20245;-89
2023/01/07 03:33:47;;;;;;;0.40;0.40;;;;;;;;;;4957745;29;20208;-90
2023/01/07 03:36:18;;;;;;;0.50;0.50;;;;;;;;;;4957861;29;20747;-89
2023/01/07 03:38:58;;;;;;;0.10;0.10;;;;;;;;;;4961933;29;20234;-90
2023/01/07 03:44:12;;;;;;;0.63;0.37;;;;;;;;;;4938757;29;20230;-90
2023/01/07 03:46:42;;;;;;;3.77;0.63;;;;;;;;;;4937980;29;20645;-91
2023/01/07 03:49:10;;;;;;;0.30;0.30;;;;;;;;;;4938153;29;20278;-90
2023/01/07 03:51:37;;;;;;;0.53;0.53;;;;;;;;;;4938592;29;20676;-90
2023/01/07 03:54:16;;;;;;;0.23;0.23;;;;;;;;;;4939036;29;20246;-88
2023/01/07 03:56:43;;;;;;;0.83;0.83;;;;;;;;;;4940154;29;20227;-89
2023/01/07 03:59:11;;;;;;;0.30;0.30;;;;;;;;;;4939846;29;20318;-89
2023/01/07 04:01:40;;;;;;;0.60;0.60;;;;;;;;;;4942316;28;20233;-89
2023/01/07 04:04:08;;;;;;;0.20;0.20;;;;;;;;;;4961738;28;20304;-89
2023/01/07 04:06:39;;;;;;;0.87;0.40;;;;;;;;;;4966154;28;20649;-88
2023/01/07 04:09:08;;;;;;;0.27;0.27;;;;;;;;;;4966681;28;20222;-87
2023/01/07 04:11:35;;;;;;;0.70;0.70;;;;;;;;;;4965237;28;20210;-88
2023/01/07 04:14:02;;;;;;;0.63;0.63;;;;;;;;;;4966792;28;20220;-88
2023/01/07 04:16:31;;;;;;;0.50;0.23;;;;;;;;;;4961078;28;20249;-88
2023/01/07 04:18:58;;;;;;;0.37;0.37;;;;;;;;;;4967931;28;20289;-87
2023/01/07 04:21:26;;;;;;;1.27;0.87;;;;;;;;;;4979986;28;20209;-86
2023/01/07 04:23:55;;;;;;;0.20;0.20;;;;;;;;;;4983580;28;20558;-87
2023/01/07 04:26:27;;;;;;;1.03;0.90;;;;;;;;;;4977682;28;20245;-89
2023/01/07 04:28:57;;;;;;;4.70;1.23;;;;;;;;;;4977389;28;20288;-88
2023/01/07 04:31:24;;;;;;;0.10;0.10;;;;;;;;;;4975784;28;20191;-89
2023/01/07 04:33:52;;;;;;;0.50;0.50;;;;;;;;;;4976750;28;20643;-90
2023/01/07 04:36:22;;;;;;;0.30;0.30;;;;;;;;;;4975935;28;20292;-88
2023/01/07 04:38:52;;;;;;;1.70;0.80;;;;;;;;;;4976369;28;20655;-90
2023/01/07 04:41:19;;;;;;;0.57;0.57;;;;;;;;;;4976002;28;20206;-89
2023/01/07 04:43:48;;;;;;;0.30;0.30;;;;;;;;;;4967195;28;20211;-90
2023/01/07 04:46:16;;;;;;;0.90;0.63;;;;;;;;;;4956132;29;20282;-90
2023/01/07 04:48:45;;;;;;;0.50;0.50;;;;;;;;;;4956874;29;20206;-90
2023/01/07 04:51:14;;;;;;;0.27;0.27;;;;;;;;;;4956919;29;20215;-90
2023/01/07 04:53:44;;;;;;;0.93;0.93;;;;;;;;;;4955894;29;20218;-90
2023/01/07 04:56:12;;;;;;;0.30;0.30;;;;;;;;;;4956640;29;20301;-89
2023/01/07 04:58:40;;;;;;;0.40;0.40;;;;;;;;;;4944815;29;20234;-89
2023/01/07 05:01:10;;;;;;;0.30;0.30;;;;;;;;;;4959078;29;20238;-89
2023/01/07 05:03:37;;;;;;;0.60;0.60;;;;;;;;;;4970307;29;20215;-90
2023/01/07 05:06:05;;;;;;;4.53;1.47;;;;;;;;;;4958835;29;20271;-89
2023/01/07 05:08:32;;;;;;;1.33;1.20;;;;;;;;;;4957338;29;20217;-89
2023/01/07 05:11:00;;;;;;;1.13;1.03;;;;;;;;;;4957128;29;20238;-91
2023/01/07 05:13:30;;;;;;;0.40;0.23;;;;;;;;;;4957158;29;20304;-88
2023/01/07 05:16:00;;;;;;;0.70;0.70;;;;;;;;;;4958440;29;20277;-89
2023/01/07 05:18:30;;;;;;;0.40;0.40;;;;;;;;;;4957018;29;20281;-89
2023/01/07 05:20:57;;;;;;;0.23;0.23;;;;;;;;;;4957383;29;20213;-88
2023/01/07 05:23:24;;;;;;;2.67;0.80;;;;;;;;;;4956406;29;20207;-89
2023/01/07 05:25:51;;;;;;;0.60;0.60;;;;;;;;;;4959202;29;20238;-89
2023/01/07 05:28:20;;;;;;;0.43;0.43;;;;;;;;;;4957369;29;20214;-89
2023/01/07 05:30:48;;;;;;;2.23;2.13;;;;;;;;;;4955903;29;20258;-89
2023/01/07 05:33:16;;;;;;;0.30;0.30;;;;;;;;;;4954763;29;20211;-89
2023/01/07 05:35:49;;;;;;;0.30;0.30;;;;;;;;;;4955623;29;20295;-89
2023/01/07 05:38:18;;;;;;;0.40;0.40;;;;;;;;;;4955397;28;20234;-89
2023/01/07 05:40:47;;;;;;;0.63;0.60;;;;;;;;;;4956315;29;20231;-87
2023/01/07 05:43:15;;;;;;;0.80;0.73;;;;;;;;;;4952513;29;20657;-91
2023/01/07 05:45:47;;;;;;;0.10;0.10;;;;;;;;;;4936368;29;20199;-88
2023/01/07 05:48:15;;;;;;;1.70;0.10;;;;;;;;;;4938823;29;20249;-87
2023/01/07 05:51:01;;;;;;;0.93;0.50;;;;;;;;;;4941475;29;20214;-88
2023/01/07 05:53:40;;;;;;;0.53;0.50;;;;;;;;;;4944410;29;20262;-89
2023/01/07 05:56:08;;;;;;;0.40;0.40;;;;;;;;;;4937705;29;20199;-89
2023/01/07 05:58:36;;;;;;;0.23;0.23;;;;;;;;;;4936854;29;20239;-89
2023/01/07 06:01:03;;;;;;;0.47;0.37;;;;;;;;;;4939061;29;20211;-89
2023/01/07 06:03:30;;;;;;;0.10;0.10;;;;;;;;;;4937253;29;20207;-90
2023/01/07 06:05:58;;;;;;;0.37;0.37;;;;;;;;;;4937195;29;20199;-89
2023/01/07 06:08:25;;;;;;;1.23;1.17;;;;;;;;;;4937138;29;20203;-90
2023/01/07 06:10:54;;;;;;;0.33;0.33;;;;;;;;;;4937321;29;20223;-89
2023/01/07 06:13:25;;;;;;;0.60;0.60;;;;;;;;;;4941738;29;20202;-91
2023/01/07 06:16:01;;;;;;;0.20;0.20;;;;;;;;;;4957649;29;20199;-90
2023/01/07 06:18:30;;;;;;;0.20;0.20;;;;;;;;;;4959945;29;20229;-90
2023/01/07 06:20:58;;;;;;;0.40;0.40;;;;;;;;;;4958528;29;20295;-90
2023/01/07 06:23:25;;;;;;;0.70;0.70;;;;;;;;;;4957541;29;20209;-89
2023/01/07 06:25:53;;;;;;;1.97;0.80;;;;;;;;;;4959126;29;20686;-89
2023/01/07 06:28:23;;;;;;;0.93;0.63;;;;;;;;;;4957561;29;20202;-89
2023/01/07 06:30:55;;;;;;;0.30;0.30;;;;;;;;;;4959157;29;20739;-87
2023/01/07 06:33:26;;;;;;;2.27;1.27;;;;;;;;;;4966631;29;20221;-90
2023/01/07 06:35:55;;;;;;;1.07;1.07;;;;;;;;;;4968307;29;20195;-87
2023/01/07 06:38:25;;;;;;;1.03;1.03;;;;;;;;;;4968455;29;20209;-88
2023/01/07 06:40:53;;;;;;;2.73;1.13;;;;;;;;;;4969033;29;20210;-87
2023/01/07 06:43:26;;;;;;;1.77;1.60;;;;;;;;;;4968575;28;20227;-87
2023/01/07 06:45:54;;;;;;;1.23;1.23;;;;;;;;;;4962836;29;20239;-89
2023/01/07 06:48:30;;;;;;;0.80;0.80;;;;;;;;;;4964106;28;20546;-89
2023/01/07 06:50:57;;;;;;;1.03;0.97;;;;;;;;;;4966649;29;20281;-88
2023/01/07 06:53:26;;;;;;;0.73;0.73;;;;;;;;;;4976147;28;20213;-87
2023/01/07 06:56:06;;;;;;;1.17;1.13;;;;;;;;;;4990529;28;20210;-85
2023/01/07 06:58:53;;;;;;;2.30;1.87;;;;;;;;;;4995210;28;20213;-86
2023/01/07 07:01:24;;;;;;;1.70;0.97;;;;;;;;;;4991272;28;20235;-87
2023/01/07 07:03:53;;;;;;;1.40;0.83;;;;;;;;;;4986428;28;20194;-89
2023/01/07 07:06:23;;;;;;;0.83;0.70;;;;;;;;;;4989753;28;20202;-88
2023/01/07 07:09:01;;;;;;;0.70;0.67;;;;;;;;;;4987702;28;20218;-89
2023/01/07 07:11:31;;;;;;;1.30;1.20;;;;;;;;;;4983474;28;20294;-88
2023/01/07 07:14:08;;;;;;;1.53;0.83;;;;;;;;;;4965363;28;20225;-88
2023/01/07 07:16:37;;;;;;;1.77;0.30;;;;;;;;;;4945508;29;20215;-88
2023/01/07 07:19:06;;;;;;;0.20;0.20;;;;;;;;;;4945039;29;20248;-90
2023/01/07 07:21:41;;;;;;;0.50;0.50;;;;;;;;;;4953224;29;20744;-90
2023/01/07 07:24:10;;;;;;;0.60;0.60;;;;;;;;;;4950116;29;20260;-91
2023/01/07 07:26:39;;;;;;;1.60;0.83;;;;;;;;;;4959608;29;20700;-89
2023/01/07 07:29:11;;;;;;;0.27;0.27;;;;;;;;;;4960796;29;20270;-90
2023/01/07 07:32:03;;;;;;;0.37;0.37;;;;;;;;;;4959430;29;20224;-91
2023/01/07 07:34:34;;;;;;;0.57;0.57;;;;;;;;;;4940311;29;20223;-89
2023/01/07 07:37:08;;;;;;;0.43;0.43;;;;;;;;;;4955719;29;20695;-89
2023/01/07 07:39:45;;;;;;;0.40;0.40;;;;;;;;;;4960902;29;20233;-88
2023/01/07 07:42:27;;;;;;;2.47;0.87;;;;;;;;;;4962254;29;20246;-88
2023/01/07 07:45:04;;;;;;;0.73;0.73;;;;;;;;;;4962335;29;20203;-89
2023/01/07 07:50:24;;;;;;;0.50;0.43;;;;;;;;;;4965837;29;20547;-90
2023/01/07 07:52:51;;;;;;;0.30;0.30;;;;;;;;;;4957959;29;20191;-90
2023/01/07 07:55:21;;;;;;;0.13;0.13;;;;;;;;;;4957010;29;20258;-91
2023/01/07 07:57:49;;;;;;;0.67;0.60;;;;;;;;;;4958499;29;20681;-90
2023/01/07 08:00:21;;;;;;;1.37;0.57;;;;;;;;;;4955494;28;20226;-90
2023/01/07 08:02:49;;;;;;;0.27;0.27;;;;;;;;;;4957330;29;20208;-90
2023/01/07 08:05:18;;;;;;;0.43;0.43;;;;;;;;;;4970469;28;20247;-89
2023/01/07 08:07:54;;;;;;;0.43;0.33;;;;;;;;;;4970233;29;20622;-89
2023/01/07 08:10:23;;;;;;;0.80;0.80;;;;;;;;;;4960587;29;20233;-89
2023/01/07 08:12:52;;;;;;;0.70;0.40;;;;;;;;;;4963739;29;20217;-89
2023/01/07 08:15:23;;;;;;;0.60;0.60;;;;;;;;;;4967924;29;20702;-88
2023/01/07 08:17:59;;;;;;;0.27;0.27;;;;;;;;;;4972073;29;20268;-88
2023/01/07 08:20:31;;;;;;;0.33;0.27;;;;;;;;;;4973147;28;20232;-89
2023/01/07 08:22:59;;;;;;;0.80;0.80;;;;;;;;;;4965000;28;20342;-87
2023/01/07 08:25:27;;;;;;;0.63;0.63;;;;;;;;;;4965567;29;20205;-87
2023/01/07 08:27:57;;;;;;;0.50;0.50;;;;;;;;;;4963684;28;20504;-88
2023/01/07 08:30:30;;;;;;;0.80;0.80;;;;;;;;;;4964878;29;20244;-90
2023/01/07 08:33:00;;;;;;;2.40;0.80;;;;;;;;;;4969074;28;20218;-89
2023/01/07 08:35:28;;;;;;;0.60;0.60;;;;;;;;;;4963253;28;20257;-89
2023/01/07 08:38:02;;;;;;;0.70;0.57;;;;;;;;;;4967257;28;20260;-90
2023/01/07 08:40:29;;;;;;;0.40;0.40;;;;;;;;;;4960553;28;20235;-88
2023/01/07 08:43:02;;;;;;;1.57;0.90;;;;;;;;;;4949288;28;20264;-90
2023/01/07 08:48:18;;;;;;;0.57;0.57;;;;;;;;;;4945296;29;20256;-90
2023/01/07 08:50:52;;;;;;;0.80;0.80;;;;;;;;;;4955131;29;20673;-88
2023/01/07 08:53:36;;;;;;;1.10;1.00;;;;;;;;;;4954477;29;20232;-91
2023/01/07 08:56:17;;;;;;;;;;;;;;;;;;;;;
2023/01/07 08:58:51;;;;;;;0.93;0.67;;;;;;;;;;4954892;29;20189;-90
2023/01/07 09:01:21;;;;;;;1.20;1.20;;;;;;;;;;4958173;29;20281;-88
2023/01/07 09:03:59;;;;;;;0.30;0.30;;;;;;;;;;4957548;29;20207;-89
2023/01/07 09:06:41;;;;;;;0.70;0.70;;;;;;;;;;4954981;29;20209;-90
2023/01/07 09:09:30;;;;;;;;;;;;;;;;;;;;;
2023/01/07 09:12:01;;;;;;;1.43;1.20;;;;;;;;;;4967833;28;20204;-90
2023/01/07 09:14:46;;;;;;;0.57;0.57;;;;;;;;;;4973746;28;20194;-91
2023/01/07 09:17:19;;;;;;;1.67;1.23;;;;;;;;;;4973970;28;20203;-89
2023/01/07 09:20:03;;;;;;;;;;;;;;;;;;;;;
2023/01/07 09:22:35;;;;;;;1.67;0.87;;;;;;;;;;4975162;28;20207;-89
2023/01/07 09:25:04;;;;;;;5.30;1.30;;;;;;;;;;4975278;28;20200;-89
2023/01/07 09:27:36;;;;;;;3.90;2.07;;;;;;;;;;4960732;28;20301;-90
2023/01/07 09:30:09;;;;;;;2.47;1.43;;;;;;;;;;4936449;29;20669;-89
2023/01/07 09:32:41;;;;;;;0.80;0.80;;;;;;;;;;4935831;29;20301;-90
2023/01/07 09:35:09;;;;;;;0.67;0.67;;;;;;;;;;4936849;29;20265;-91
2023/01/07 09:37:39;;;;;;;0.90;0.57;;;;;;;;;;4939612;29;20223;-90
2023/01/07 09:40:10;;;;;;;1.17;1.17;;;;;;;;;;4938335;29;20706;-89
2023/01/07 09:42:45;;;;;;;0.80;0.57;;;;;;;;;;4937697;29;20255;-90
2023/01/07 09:45:24;;;;;;;1.97;1.13;;;;;;;;;;4939817;28;20285;-90
2023/01/07 09:48:01;;;;;;;0.57;0.57;;;;;;;;;;4943102;28;20672;-90
2023/01/07 09:50:34;;;;;;;0.87;0.87;;;;;;;;;;4961786;28;20207;-88
2023/01/07 09:53:10;;;;;;;0.80;0.80;;;;;;;;;;4962939;28;20212;-90
2023/01/07 09:55:46;;;;;;;1.60;1.23;;;;;;;;;;4963202;28;20221;-88
2023/01/07 09:58:27;;;;;;;1.73;1.63;;;;;;;;;;4966456;28;20347;-91
2023/01/07 10:00:58;;;;;;;1.50;1.50;;;;;;;;;;4963992;28;20240;-91
2023/01/07 10:03:38;;;;;;;1.80;1.27;;;;;;;;;;4963089;28;20203;-90
2023/01/07 10:06:12;;;;;;;0.70;0.70;;;;;;;;;;4964153;28;20209;-88
2023/01/07 10:08:46;;;;;;;2.33;1.37;;;;;;;;;;4968090;28;20207;-91
2023/01/07 10:11:23;;;;;;;1.57;1.57;;;;;;;;;;4958909;28;20209;-92
2023/01/07 10:14:05;;;;;;;0.80;0.80;;;;;;;;;;4942267;29;20212;-90
2023/01/07 10:16:43;;;;;;;0.90;0.90;;;;;;;;;;4971438;28;20213;-91
2023/01/07 10:19:20;;;;;;;1.33;1.33;;;;;;;;;;4960014;28;20234;-89
2023/01/07 10:21:53;;;;;;;0.60;0.60;;;;;;;;;;4965148;28;20221;-90
2023/01/07 10:24:26;;;;;;;2.20;0.80;;;;;;;;;;4962250;28;20611;-90
2023/01/07 10:26:57;;;;;;;2.23;2.03;;;;;;;;;;4968117;28;20315;-90
2023/01/07 10:29:31;;;;;;;2.27;1.40;;;;;;;;;;4939600;29;20286;-88
2023/01/07 10:32:04;;;;;;;0.67;0.67;;;;;;;;;;4942383;29;20496;-90
2023/01/07 10:34:39;;;;;;;0.77;0.77;;;;;;;;;;4941023;29;20302;-89
2023/01/07 10:37:20;;;;;;;0.60;0.60;;;;;;;;;;4946351;29;20697;-89
2023/01/07 10:39:52;;;;;;;4.30;2.10;;;;;;;;;;4952151;28;20741;-91
2023/01/07 10:42:25;;;;;;;0.50;0.50;;;;;;;;;;4951899;29;20240;-90
2023/01/07 10:45:14;;;;;;;2.03;1.93;;;;;;;;;;4949986;28;20706;-89
2023/01/07 10:47:46;;;;;;;8.00;2.50;;;;;;;;;;4958603;28;20245;-89
2023/01/07 10:50:28;;;;;;;3.10;2.47;;;;;;;;;;4947657;29;20705;-90
2023/01/07 10:53:00;;;;;;;1.07;1.07;;;;;;;;;;4951476;29;20248;-90
2023/01/07 10:55:37;;;;;;;1.20;1.20;;;;;;;;;;4933996;29;20379;-90
2023/01/07 10:58:04;;;;;;;0.77;0.77;;;;;;;;;;4938845;29;20292;-89
2023/01/07 11:00:32;;;;;;;2.07;1.70;;;;;;;;;;4932579;29;20743;-90
2023/01/07 11:03:01;;;;;;;5.37;3.03;;;;;;;;;;4951807;29;20270;-90
2023/01/07 11:05:39;;;;;;;0.70;0.67;;;;;;;;;;4952886;28;20324;-90
2023/01/07 11:08:11;;;;;;;2.77;1.43;;;;;;;;;;4951203;28;20232;-88
2023/01/07 11:10:45;;;;;;;1.07;0.97;;;;;;;;;;4952957;29;20628;-88
2023/01/07 11:13:14;;;;;;;0.47;0.47;;;;;;;;;;4951294;28;20732;-91
2023/01/07 11:15:44;;;;;;;8.43;1.13;;;;;;;;;;4960657;28;20734;-89
2023/01/07 11:18:16;;;;;;;0.90;0.90;;;;;;;;;;4956289;28;20626;-91
2023/01/07 11:20:46;;;;;;;2.05;0.95;;;;;;;;;;4953749;29;20350;-91
2023/01/07 11:23:35;;;;;;;1.00;1.00;;;;;;;;;;4953808;29;20296;-89
2023/01/07 11:26:16;;;;;;;0.57;0.50;;;;;;;;;;4956317;28;20237;-90
2023/01/07 11:28:48;;;;;;;0.80;0.80;;;;;;;;;;4952605;28;20285;-90
2023/01/07 11:31:18;;;;;;;0.57;0.57;;;;;;;;;;4952223;28;20240;-88
2023/01/07 11:33:47;;;;;;;2.03;1.70;;;;;;;;;;4947416;29;20248;-91
2023/01/07 11:36:19;;;;;;;1.67;0.77;;;;;;;;;;4959323;28;20246;-90
2023/01/07 11:38:47;;;;;;;0.60;0.60;;;;;;;;;;4963238;29;20243;-91
2023/01/07 11:41:26;;;;;;;0.45;0.45;;;;;;;;;;4960834;29;20246;-89
2023/01/07 11:43:54;;;;;;;0.93;0.93;;;;;;;;;;4965988;29;20219;-89
2023/01/07 11:46:27;;;;;;;4.43;1.77;;;;;;;;;;4966800;29;20235;-88
2023/01/07 11:48:59;;;;;;;1.03;0.90;;;;;;;;;;4959362;29;20335;-90
2023/01/07 11:51:41;;;;;;;2.00;1.40;;;;;;;;;;4959113;29;20442;-90
2023/01/07 11:54:18;;;;;;;4.63;1.30;;;;;;;;;;4962132;28;20535;-90
2023/01/07 11:56:47;;;;;;;3.53;1.33;;;;;;;;;;4977785;28;20226;-89
2023/01/07 11:59:33;;;;;;;4.57;1.30;;;;;;;;;;4961859;28;20796;-88
2023/01/07 12:02:00;;;;;;;0.80;0.80;;;;;;;;;;4955682;29;20246;-90
2023/01/07 12:04:28;;;;;;;1.33;1.13;;;;;;;;;;4955237;29;20313;-90
2023/01/07 12:07:01;;;;;;;2.60;1.33;;;;;;;;;;4955680;29;20389;-89
2023/01/07 12:09:34;;;;;;;4.27;1.90;;;;;;;;;;4951579;29;20242;-90
2023/01/07 12:15:01;;;;;;;0.60;0.60;;;;;;;;;;4948783;28;20235;-87
2023/01/07 12:17:30;;;;;;;0.70;0.70;;;;;;;;;;4953854;29;20290;-87
2023/01/07 12:20:18;;;;;;;0.67;0.67;;;;;;;;;;4954340;29;20307;-88
2023/01/07 12:22:53;;;;;;;0.93;0.90;;;;;;;;;;4926081;29;20252;-88
2023/01/07 12:25:28;;;;;;;1.70;0.90;;;;;;;;;;4953670;29;20266;-87
2023/01/07 12:28:00;;;;;;;0.90;0.90;;;;;;;;;;4963027;28;20306;-87
2023/01/07 12:30:46;;;;;;;0.73;0.63;;;;;;;;;;4962219;28;20219;-91
2023/01/07 12:33:21;;;;;;;0.50;0.50;;;;;;;;;;4957607;28;20234;-89
2023/01/07 12:36:00;;;;;;;2.03;0.77;;;;;;;;;;4954359;28;20250;-91
2023/01/07 12:38:39;;;;;;;1.73;1.63;;;;;;;;;;4974934;28;20231;-89
2023/01/07 12:41:18;;;;;;;1.50;0.63;;;;;;;;;;4964303;28;20330;-89
2023/01/07 12:43:52;;;;;;;0.60;0.60;;;;;;;;;;4956676;28;20688;-91
2023/01/07 12:46:20;;;;;;;0.47;0.47;;;;;;;;;;4953672;28;20226;-91
2023/01/07 12:48:56;;;;;;;1.90;0.93;;;;;;;;;;4953736;29;20247;-90
2023/01/07 12:51:29;;;;;;;2.90;0.77;;;;;;;;;;4953393;29;20491;-90
2023/01/07 12:54:02;;;;;;;1.30;0.93;;;;;;;;;;4952642;28;20234;-89
2023/01/07 12:56:33;;;;;;;5.40;1.67;;;;;;;;;;4950647;28;20231;-89
2023/01/07 12:59:03;;;;;;;0.40;0.40;;;;;;;;;;4952692;29;20244;-91
2023/01/07 13:01:34;;;;;;;0.30;0.30;;;;;;;;;;4950984;29;20367;-91
2023/01/07 13:04:07;;;;;;;0.23;0.23;;;;;;;;;;4936911;29;20560;-89
2023/01/07 13:06:43;;;;;;;1.97;0.57;;;;;;;;;;4938629;28;20220;-90
2023/01/07 13:09:17;;;;;;;0.07;0.07;;;;;;;;;;4945762;29;20352;-89
2023/01/07 13:14:32;;;;;;;1.10;0.90;;;;;;;;;;4950258;29;20784;-90
2023/01/07 13:17:01;;;;;;;1.63;1.50;;;;;;;;;;4959597;28;20238;-91
2023/01/07 13:19:29;;;;;;;2.17;0.83;;;;;;;;;;4962110;29;20239;-90
2023/01/07 13:22:01;;;;;;;0.90;0.70;;;;;;;;;;4960934;29;20211;-89
2023/01/07 13:24:35;;;;;;;1.30;1.30;;;;;;;;;;4952807;29;20227;-88
2023/01/07 13:27:10;;;;;;;6.90;0.80;;;;;;;;;;4951838;29;20637;-89
2023/01/07 13:29:57;;;;;;;1.13;1.13;;;;;;;;;;4952955;29;20318;-86
2023/01/07 13:32:49;;;;;;;;;;;;;;;;;;;;;
2023/01/07 13:36:08;;;;;;;;;;;;;;;;;;;;;
2023/01/07 13:38:50;;;;;;;1.27;1.20;;;;;;;;;;4944549;29;20235;-89
2023/01/07 13:41:38;;;;;;;0.93;0.93;;;;;;;;;;4952374;29;20340;-88
2023/01/07 13:44:18;;;;;;;3.13;1.27;;;;;;;;;;4937255;29;20311;-88
2023/01/07 13:46:47;;;;;;;2.40;0.73;;;;;;;;;;4944551;29;20227;-90
2023/01/07 13:49:24;;;;;;;0.87;0.40;;;;;;;;;;4949080;29;20328;-90
2023/01/07 13:51:54;;;;;;;1.27;1.27;;;;;;;;;;4943493;29;20236;-88
2023/01/07 13:54:55;;;;;;;2.50;1.47;;;;;;;;;;4949020;29;20264;-89
2023/01/07 13:57:42;;;;;;;1.47;1.33;;;;;;;;;;4911193;29;20233;-88
2023/01/07 14:00:24;;;;;;;10.17;1.60;;;;;;;;;;4901288;29;21921;-89
2023/01/07 14:02:56;;;;;;;4.37;2.03;;;;;;;;;;4922280;29;20285;-88
2023/01/07 14:05:26;;;;;;;1.60;1.50;;;;;;;;;;4932493;29;20227;-90
2023/01/07 14:07:56;;;;;;;1.03;1.03;;;;;;;;;;4938867;29;20222;-87
2023/01/07 14:10:26;;;;;;;1.43;1.33;;;;;;;;;;4943279;29;20719;-89
2023/01/07 14:13:07;;;;;;;3.03;1.57;;;;;;;;;;4953392;29;20323;-88
2023/01/07 14:15:54;;;;;;;2.47;1.77;;;;;;;;;;4955180;28;20237;-87
2023/01/07 14:18:31;;;;;;;2.03;1.77;;;;;;;;;;4954381;28;20318;-88
2023/01/07 14:21:05;;;;;;;2.10;0.87;;;;;;;;;;4961674;28;20638;-87
2023/01/07 14:23:36;;;;;;;0.87;0.70;;;;;;;;;;4958656;28;20712;-87
2023/01/07 14:26:15;;;;;;;1.60;1.50;;;;;;;;;;4963473;28;20234;-87
2023/01/07 14:29:12;;;;;;;2.87;1.17;;;;;;;;;;4959520;28;20245;-89
2023/01/07 14:31:43;;;;;;;0.87;0.83;;;;;;;;;;4957344;28;20222;-89
2023/01/07 14:34:33;;;;;;;0.93;0.67;;;;;;;;;;4958520;28;20301;-89
2023/01/07 14:37:17;;;;;;;1.40;1.30;;;;;;;;;;4957855;28;20222;-87
2023/01/07 14:39:46;;;;;;;5.30;0.73;;;;;;;;;;4957868;28;20226;-89
2023/01/07 14:42:29;;;;;;;0.97;0.93;;;;;;;;;;4980581;28;20242;-87
2023/01/07 14:45:18;;;;;;;0.63;0.63;;;;;;;;;;4953349;29;20775;-89
2023/01/07 14:47:55;;;;;;;0.50;0.37;;;;;;;;;;4945922;29;20222;-88
2023/01/07 14:50:28;;;;;;;1.23;1.10;;;;;;;;;;4944089;29;20311;-88
2023/01/07 14:53:10;;;;;;;0.90;0.90;;;;;;;;;;4940438;29;20285;-86
2023/01/07 14:55:54;;;;;;;1.00;0.90;;;;;;;;;;4914701;29;20234;-88
2023/01/07 14:58:27;;;;;;;0.30;0.30;;;;;;;;;;4913457;29;20251;-88
2023/01/07 15:01:09;;;;;;;0.77;0.77;;;;;;;;;;4929694;29;20232;-87
2023/01/07 15:03:52;;;;;;;8.70;1.00;;;;;;;;;;4959593;29;20230;-87
2023/01/07 15:06:33;;;;;;;2.37;1.43;;;;;;;;;;4958429;28;20336;-89
2023/01/07 15:17:18;;;;;;;3.67;2.40;;;;;;;;;;4953408;29;20743;-89
2023/01/07 15:19:53;;;;;;;1.97;1.57;;;;;;;;;;4941801;29;20919;-87
2023/01/07 15:22:39;;;;;;;0.87;0.87;;;;;;;;;;4952191;29;20234;-89
2023/01/07 15:25:10;;;;;;;1.83;1.73;;;;;;;;;;4946013;29;20231;-88
2023/01/07 15:27:48;;;;;;;1.10;1.10;;;;;;;;;;4944303;29;20574;-87
2023/01/07 15:30:22;;;;;;;2.43;0.80;;;;;;;;;;4953835;29;20320;-89
2023/01/07 15:32:56;;;;;;;0.93;0.60;;;;;;;;;;4944202;29;20319;-87
2023/01/07 15:35:27;;;;;;;0.93;0.93;;;;;;;;;;4957626;29;20230;-88
2023/01/07 15:37:55;;;;;;;0.87;0.87;;;;;;;;;;4957441;29;20222;-88
2023/01/07 15:40:27;;;;;;;5.33;1.63;;;;;;;;;;4948135;29;20346;-88
2023/01/07 15:42:57;;;;;;;3.10;2.10;;;;;;;;;;4949690;29;20246;-87
2023/01/07 15:45:25;;;;;;;0.97;0.87;;;;;;;;;;4957573;29;20234;-87
2023/01/07 15:47:53;;;;;;;1.27;1.17;;;;;;;;;;4959804;29;20222;-87
2023/01/07 15:50:26;;;;;;;0.67;0.67;;;;;;;;;;4961384;29;20256;-86
2023/01/07 15:52:54;;;;;;;11.53;4.93;;;;;;;;;;4959850;29;20763;-88
2023/01/07 15:55:26;;;;;;;2.97;2.70;;;;;;;;;;4958139;29;20514;-86
2023/01/07 15:57:57;;;;;;;2.70;2.53;;;;;;;;;;4957402;29;20242;-89
2023/01/07 16:00:28;;;;;;;2.10;1.63;;;;;;;;;;4955880;29;20238;-88
2023/01/07 16:02:56;;;;;;;3.47;3.27;;;;;;;;;;4949394;29;20259;-86
2023/01/07 16:05:25;;;;;;;2.20;2.07;;;;;;;;;;4935823;29;20310;-87
2023/01/07 16:07:54;;;;;;;4.37;2.17;;;;;;;;;;4967704;28;20265;-89
2023/01/07 16:10:22;;;;;;;3.40;2.53;;;;;;;;;;4971729;28;20249;-87
2023/01/07 16:12:50;;;;;;;4.73;3.70;;;;;;;;;;4975746;28;20222;-87
2023/01/07 16:15:22;;;;;;;3.93;3.63;;;;;;;;;;4976657;28;20230;-87
2023/01/07 16:17:53;;;;;;;3.63;2.83;;;;;;;;;;4955728;28;20222;-87
2023/01/07 16:20:22;;;;;;;1.60;1.50;;;;;;;;;;4949852;28;20254;-90
2023/01/07 16:23:08;;;;;;;5.73;2.83;;;;;;;;;;4957276;28;20263;-87
2023/01/07 16:25:43;;;;;;;3.47;1.70;;;;;;;;;;4949156;29;20230;-86